createdAt,value
2023-03-11T00:01:25.228Z,0.90
2023-03-11T00:04:07.746Z,1.07
2023-03-11T00:07:02.187Z,0.90
2023-03-11T00:09:38.829Z,1.00
2023-03-11T00:12:33.904Z,0.90
2023-03-11T00:15:24.875Z,1.00
2023-03-11T00:18:20.624Z,0.80
2023-03-11T00:21:02.928Z,0.90
2023-03-11T00:24:01.395Z,1.10
2023-03-11T00:26:38.545Z,1.00
2023-03-11T00:29:08.522Z,0.90
2023-03-11T00:31:46.468Z,0.90
2023-03-11T00:34:29.815Z,1.20
2023-03-11T00:37:25.458Z,1.03
2023-03-11T00:40:38.382Z,1.00
2023-03-11T00:43:17.309Z,0.90
2023-03-11T00:45:48.525Z,0.77
2023-03-11T00:48:38.005Z,0.90
2023-03-11T00:51:22.073Z,1.00
2023-03-11T00:53:54.582Z,1.03
2023-03-11T00:57:00.111Z,0.87
2023-03-11T00:59:50.423Z,1.00
2023-03-11T01:02:42.253Z,1.07
2023-03-11T01:05:25.165Z,0.90
2023-03-11T01:08:09.368Z,0.90
2023-03-11T01:10:55.739Z,0.87
2023-03-11T01:13:47.441Z,0.90
2023-03-11T01:16:17.767Z,0.90
2023-03-11T01:18:49.421Z,1.00
2023-03-11T01:21:19.310Z,1.07
2023-03-11T01:24:15.532Z,1.30
2023-03-11T01:27:03.368Z,1.20
2023-03-11T01:30:20.374Z,1.50
2023-03-11T01:32:53.238Z,1.20
2023-03-11T01:35:56.633Z,1.47
2023-03-11T01:38:42.156Z,1.30
2023-03-11T01:41:24.847Z,1.07
2023-03-11T01:43:57.510Z,1.40
2023-03-11T01:47:44.365Z,1.40
2023-03-11T01:50:46.663Z,1.30
2023-03-11T01:53:37.302Z,1.37
2023-03-11T01:56:33.805Z,1.17
2023-03-11T01:59:08.461Z,1.30
2023-03-11T02:02:01.542Z,1.10
2023-03-11T02:04:40.914Z,0.93
2023-03-11T02:07:38.508Z,1.20
2023-03-11T02:10:27.169Z,1.17
2023-03-11T02:13:04.791Z,1.40
2023-03-11T02:15:55.133Z,1.10
2023-03-11T02:18:44.556Z,1.27
2023-03-11T02:21:32.145Z,1.30
2023-03-11T02:24:32.688Z,1.40
2023-03-11T02:27:13.829Z,1.27
2023-03-11T02:29:59.960Z,1.10
2023-03-11T02:32:38.856Z,1.10
2023-03-11T02:35:12.881Z,1.43
2023-03-11T02:37:48.818Z,1.20
2023-03-11T02:40:50.100Z,1.30
2023-03-11T02:43:39.700Z,1.10
2023-03-11T02:46:14.766Z,1.10
2023-03-11T02:49:03.766Z,1.50
2023-03-11T02:52:04.400Z,1.53
2023-03-11T02:54:45.967Z,1.50
2023-03-11T02:57:32.297Z,1.20
2023-03-11T03:00:21.615Z,1.27
2023-03-11T03:02:59.693Z,1.40
2023-03-11T03:05:37.805Z,1.50
2023-03-11T03:08:21.590Z,1.30
2023-03-11T03:11:03.639Z,1.10
2023-03-11T03:13:55.844Z,1.40
2023-03-11T03:16:38.386Z,1.93
2023-03-11T03:19:23.127Z,1.40
2023-03-11T03:22:02.986Z,1.87
2023-03-11T03:24:46.570Z,1.60
2023-03-11T03:27:18.257Z,1.50
2023-03-11T03:29:50.507Z,1.57
2023-03-11T03:32:29.536Z,1.37
2023-03-11T03:35:11.309Z,1.40
2023-03-11T03:37:59.383Z,1.20
2023-03-11T03:40:31.402Z,1.40
2023-03-11T03:43:05.028Z,1.63
2023-03-11T03:45:39.576Z,1.40
2023-03-11T03:48:34.628Z,1.77
2023-03-11T03:51:33.080Z,1.50
2023-03-11T03:54:13.579Z,1.50
2023-03-11T03:57:09.946Z,1.43
2023-03-11T03:59:56.112Z,1.43
2023-03-11T04:02:39.533Z,1.70
2023-03-11T04:05:36.943Z,1.33
2023-03-11T04:08:22.511Z,1.50
2023-03-11T04:11:01.584Z,1.60
2023-03-11T04:13:46.996Z,1.70
2023-03-11T04:16:44.265Z,1.80
2023-03-11T04:19:27.453Z,1.50
2023-03-11T04:22:28.209Z,1.70
2023-03-11T04:25:01.075Z,1.50
2023-03-11T04:27:32.427Z,1.40
2023-03-11T04:30:28.156Z,1.57
2023-03-11T04:33:00.172Z,1.43
2023-03-11T04:35:31.838Z,1.90
2023-03-11T04:38:17.357Z,1.87
2023-03-11T04:40:57.376Z,1.50
2023-03-11T04:43:27.760Z,1.83
2023-03-11T04:46:27.149Z,1.50
2023-03-11T04:49:31.481Z,1.33
2023-03-11T04:52:12.237Z,1.53
2023-03-11T04:55:14.361Z,1.80
2023-03-11T04:58:06.024Z,1.67
2023-03-11T05:00:44.573Z,2.20
2023-03-11T05:03:26.961Z,1.60
2023-03-11T05:06:23.734Z,1.40
2023-03-11T05:09:11.960Z,1.50
2023-03-11T05:11:47.492Z,1.67
2023-03-11T05:14:32.936Z,2.27
2023-03-11T05:17:25.151Z,1.43
2023-03-11T05:20:04.361Z,1.60
2023-03-11T05:22:40.464Z,1.60
2023-03-11T05:25:26.850Z,1.60
2023-03-11T05:28:18.712Z,1.63
2023-03-11T05:31:01.711Z,1.40
2023-03-11T05:33:45.035Z,1.70
2023-03-11T05:36:24.951Z,1.57
2023-03-11T05:39:11.393Z,1.60
2023-03-11T05:42:12.525Z,1.70
2023-03-11T05:45:01.399Z,1.70
2023-03-11T05:48:05.704Z,1.63
2023-03-11T05:50:50.571Z,1.37
2023-03-11T05:53:30.602Z,1.40
2023-03-11T05:56:03.794Z,1.63
2023-03-11T05:58:39.275Z,1.33
2023-03-11T06:01:26.957Z,1.80
2023-03-11T06:03:59.372Z,1.57
2023-03-11T06:06:56.096Z,1.70
2023-03-11T06:09:37.303Z,1.40
2023-03-11T06:12:25.076Z,1.23
2023-03-11T06:15:17.029Z,1.63
2023-03-11T06:18:13.968Z,1.80
2023-03-11T06:20:45.067Z,1.60
2023-03-11T06:23:24.403Z,1.60
2023-03-11T06:26:09.249Z,1.93
2023-03-11T06:29:00.124Z,1.80
2023-03-11T06:31:37.443Z,1.53
2023-03-11T06:34:21.745Z,1.50
2023-03-11T06:36:52.365Z,1.57
2023-03-11T06:39:25.357Z,2.33
2023-03-11T06:42:13.845Z,1.90
2023-03-11T06:44:47.281Z,1.97
2023-03-11T06:47:31.913Z,1.80
2023-03-11T06:50:18.861Z,1.83
2023-03-11T06:53:23.300Z,1.87
2023-03-11T06:56:07.856Z,2.10
2023-03-11T06:58:46.132Z,1.77
2023-03-11T07:01:38.708Z,1.67
2023-03-11T07:04:15.212Z,1.93
2023-03-11T07:07:02.013Z,2.10
2023-03-11T07:09:37.340Z,1.93
2023-03-11T07:12:10.668Z,2.40
2023-03-11T07:15:01.570Z,1.90
2023-03-11T07:17:45.701Z,2.10
2023-03-11T07:20:33.524Z,1.80
2023-03-11T07:23:19.431Z,1.70
2023-03-11T07:26:05.430Z,1.73
2023-03-11T07:28:58.496Z,2.00
2023-03-11T07:32:00.456Z,1.70
2023-03-11T07:34:30.861Z,2.27
2023-03-11T07:37:22.091Z,2.17
2023-03-11T07:40:21.234Z,1.97
2023-03-11T07:43:11.462Z,2.33
2023-03-11T07:45:55.413Z,1.67
2023-03-11T07:48:44.187Z,2.43
2023-03-11T07:51:26.455Z,2.30
2023-03-11T07:54:02.965Z,2.10
2023-03-11T07:56:51.281Z,1.90
2023-03-11T07:59:44.076Z,2.57
2023-03-11T08:02:17.906Z,1.90
2023-03-11T08:05:02.881Z,2.27
2023-03-11T08:07:35.328Z,1.87
2023-03-11T08:10:22.727Z,1.77
2023-03-11T08:13:04.438Z,2.10
2023-03-11T08:15:43.235Z,2.10
2023-03-11T08:18:29.222Z,1.90
2023-03-11T08:21:00.029Z,2.10
2023-03-11T08:23:46.341Z,2.20
2023-03-11T08:26:27.195Z,2.10
2023-03-11T08:29:16.641Z,2.17
2023-03-11T08:32:03.044Z,2.13
2023-03-11T08:34:55.978Z,2.30
2023-03-11T08:37:27.551Z,2.00
2023-03-11T08:40:22.065Z,2.37
2023-03-11T08:43:00.608Z,2.33
2023-03-11T08:45:42.239Z,2.03
2023-03-11T08:48:24.303Z,1.70
2023-03-11T08:51:10.500Z,2.23
2023-03-11T08:53:46.072Z,2.07
2023-03-11T08:56:27.493Z,2.13
2023-03-11T08:59:08.304Z,2.60
2023-03-11T09:01:48.861Z,2.50
2023-03-11T09:04:35.678Z,2.27
2023-03-11T09:07:29.590Z,1.80
2023-03-11T09:10:12.060Z,1.90
2023-03-11T09:13:09.322Z,1.87
2023-03-11T09:16:06.608Z,2.00
2023-03-11T09:19:04.060Z,1.67
2023-03-11T09:21:53.466Z,2.00
2023-03-11T09:24:51.988Z,1.97
2023-03-11T09:27:26.116Z,1.77
2023-03-11T09:29:57.878Z,2.20
2023-03-11T09:32:32.514Z,1.77
2023-03-11T09:35:20.436Z,1.63
2023-03-11T09:38:03.507Z,1.53
2023-03-11T09:41:05.067Z,1.70
2023-03-11T09:44:01.301Z,1.70
2023-03-11T09:47:40.491Z,1.80
2023-03-11T09:50:51.007Z,1.80
2023-03-11T09:53:40.316Z,1.53
2023-03-11T09:56:17.638Z,1.80
2023-03-11T09:59:00.765Z,1.70
2023-03-11T10:01:48.832Z,1.80
2023-03-11T10:04:32.433Z,1.80
2023-03-11T10:07:47.564Z,1.70
2023-03-11T10:10:48.406Z,1.70
2023-03-11T10:13:58.171Z,1.70
2023-03-11T10:17:07.882Z,1.33
2023-03-11T10:19:50.462Z,1.30
2023-03-11T10:22:35.437Z,1.70
2023-03-11T10:25:16.645Z,1.80
2023-03-11T10:28:06.098Z,2.00
2023-03-11T10:30:51.665Z,1.80
2023-03-11T10:33:34.628Z,1.90
2023-03-11T10:36:24.647Z,1.60
2023-03-11T10:39:04.189Z,1.87
2023-03-11T10:41:50.255Z,2.00
2023-03-11T10:44:29.062Z,1.53
2023-03-11T10:47:00.639Z,1.53
2023-03-11T10:49:47.398Z,2.07
2023-03-11T10:52:28.170Z,1.50
2023-03-11T10:55:21.183Z,1.70
2023-03-11T10:58:01.920Z,1.40
2023-03-11T11:00:45.442Z,1.53
2023-03-11T11:03:27.385Z,1.63
2023-03-11T11:06:08.289Z,1.50
2023-03-11T11:08:41.608Z,1.37
2023-03-11T11:11:27.011Z,1.60
2023-03-11T11:14:10.613Z,1.80
2023-03-11T11:16:42.596Z,1.33
2023-03-11T11:19:31.160Z,1.67
2023-03-11T11:22:13.226Z,1.60
2023-03-11T11:25:04.014Z,1.63
2023-03-11T11:28:05.660Z,1.43
2023-03-11T11:30:37.319Z,1.50
2023-03-11T11:33:26.616Z,1.20
2023-03-11T11:36:20.802Z,1.50
2023-03-11T11:38:58.730Z,1.50
2023-03-11T11:41:47.169Z,1.47
2023-03-11T11:44:37.155Z,1.83
2023-03-11T11:47:29.378Z,1.50
2023-03-11T11:50:26.950Z,1.47
2023-03-11T11:53:16.590Z,1.80
2023-03-11T11:56:13.016Z,1.50
2023-03-11T11:58:44.279Z,1.40
2023-03-11T12:01:56.249Z,1.83
2023-03-11T12:05:04.188Z,1.47
2023-03-11T12:08:01.839Z,1.57
2023-03-11T12:10:58.773Z,1.37
2023-03-11T12:14:04.835Z,1.30
2023-03-11T12:16:50.765Z,1.30
2023-03-11T12:19:54.725Z,1.60
2023-03-11T12:23:10.308Z,1.70
2023-03-11T12:26:20.626Z,1.63
2023-03-11T12:29:25.991Z,1.47
2023-03-11T12:32:38.725Z,1.40
2023-03-11T12:35:23.806Z,1.47
2023-03-11T12:38:29.482Z,1.67
2023-03-11T12:41:37.714Z,1.50
2023-03-11T12:44:26.835Z,1.80
2023-03-11T12:47:29.335Z,1.80
2023-03-11T12:50:45.955Z,1.67
2023-03-11T12:53:24.560Z,1.20
2023-03-11T12:56:10.943Z,1.30
2023-03-11T12:59:20.962Z,1.40
2023-03-11T13:02:15.383Z,1.60
2023-03-11T13:05:08.058Z,1.63
2023-03-11T13:07:51.557Z,1.43
2023-03-11T13:10:49.072Z,1.50
2023-03-11T13:13:42.772Z,1.60
2023-03-11T13:16:55.994Z,1.50
2023-03-11T13:19:40.293Z,1.47
2023-03-11T13:23:24.119Z,1.70
2023-03-11T13:26:40.615Z,1.70
2023-03-11T13:29:57.796Z,1.70
2023-03-11T13:32:57.325Z,1.80
2023-03-11T13:35:53.214Z,1.63
2023-03-11T13:39:26.251Z,1.70
2023-03-11T13:42:33.507Z,1.60
2023-03-11T13:45:29.500Z,1.40
2023-03-11T13:48:07.409Z,1.43
2023-03-11T13:51:00.858Z,1.40
2023-03-11T13:53:59.826Z,1.80
2023-03-11T13:56:51.628Z,1.40
2023-03-11T13:59:42.583Z,1.63
2023-03-11T14:02:21.692Z,1.60
2023-03-11T14:05:07.377Z,1.90
2023-03-11T14:08:05.225Z,1.97
2023-03-11T14:10:45.362Z,1.70
2023-03-11T14:13:33.148Z,1.70
2023-03-11T14:16:42.552Z,1.87
2023-03-11T14:19:22.498Z,1.97
2023-03-11T14:22:10.405Z,1.60
2023-03-11T14:24:55.071Z,1.90
2023-03-11T14:27:55.154Z,1.30
2023-03-11T14:30:45.419Z,1.63
2023-03-11T14:33:38.010Z,1.67
2023-03-11T14:36:22.294Z,1.80
2023-03-11T14:38:56.685Z,1.60
2023-03-11T14:41:34.221Z,1.40
2023-03-11T14:44:14.538Z,1.80
2023-03-11T14:47:13.593Z,1.70
2023-03-11T14:50:18.810Z,1.40
2023-03-11T14:53:16.571Z,1.40
2023-03-11T14:56:01.983Z,1.33
2023-03-11T14:59:08.106Z,1.77
2023-03-11T15:01:57.247Z,1.40
2023-03-11T15:04:44.848Z,1.60
2023-03-11T15:07:34.687Z,1.77
2023-03-11T15:10:10.315Z,1.50
2023-03-11T15:13:22.715Z,1.33
2023-03-11T15:15:59.736Z,1.40
2023-03-11T15:18:43.040Z,1.80
2023-03-11T15:21:35.460Z,1.80
2023-03-11T15:25:03.252Z,1.57
2023-03-11T15:27:41.977Z,1.70
2023-03-11T15:30:28.557Z,1.80
2023-03-11T15:33:04.382Z,1.47
2023-03-11T15:36:07.482Z,1.40
2023-03-11T15:38:46.049Z,1.50
2023-03-11T15:41:49.636Z,1.60
2023-03-11T15:44:31.651Z,1.80
2023-03-11T15:47:19.790Z,2.10
2023-03-11T15:50:07.859Z,1.60
2023-03-11T15:53:01.033Z,1.60
2023-03-11T15:55:34.315Z,1.70
2023-03-11T15:58:20.512Z,1.80
2023-03-11T16:01:04.487Z,1.70
2023-03-11T16:03:35.287Z,1.60
2023-03-11T16:06:13.955Z,1.63
2023-03-11T16:08:51.510Z,1.60
2023-03-11T16:11:32.748Z,1.50
2023-03-11T16:14:24.694Z,1.67
2023-03-11T16:17:16.814Z,1.60
2023-03-11T16:20:17.938Z,1.70
2023-03-11T16:22:52.589Z,1.73
2023-03-11T16:25:43.154Z,1.40
2023-03-11T16:28:31.707Z,1.47
2023-03-11T16:31:25.878Z,1.43
2023-03-11T16:33:58.870Z,1.33
2023-03-11T16:36:45.222Z,1.70
2023-03-11T16:39:30.407Z,1.43
2023-03-11T16:42:18.556Z,1.80
2023-03-11T16:44:50.000Z,1.90
2023-03-11T16:47:31.343Z,1.70
2023-03-11T16:50:17.380Z,1.27
2023-03-11T16:53:14.649Z,1.50
2023-03-11T16:56:04.516Z,1.50
2023-03-11T16:59:03.258Z,1.50
2023-03-11T17:01:50.611Z,1.70
2023-03-11T17:04:23.365Z,1.40
2023-03-11T17:07:24.828Z,1.63
2023-03-11T17:10:19.841Z,1.50
2023-03-11T17:12:59.665Z,1.47
2023-03-11T17:15:42.688Z,1.40
2023-03-11T17:18:27.073Z,1.43
2023-03-11T17:21:02.526Z,2.17
2023-03-11T17:23:47.225Z,2.00
2023-03-11T17:26:20.587Z,1.60
2023-03-11T17:28:58.304Z,1.53
2023-03-11T17:31:39.527Z,1.43
2023-03-11T17:34:10.711Z,1.10
2023-03-11T17:37:19.076Z,1.30
2023-03-11T17:40:06.691Z,1.60
2023-03-11T17:42:54.108Z,1.63
2023-03-11T17:45:42.945Z,1.90
2023-03-11T17:48:30.235Z,1.63
2023-03-11T17:51:19.082Z,1.60
2023-03-11T17:54:20.502Z,1.70
2023-03-11T17:57:01.112Z,1.50
2023-03-11T17:59:36.971Z,1.70
2023-03-11T18:02:31.880Z,1.90
2023-03-11T18:05:16.005Z,1.93
2023-03-11T18:07:53.850Z,1.90
2023-03-11T18:11:11.813Z,1.60
2023-03-11T18:14:07.829Z,1.80
2023-03-11T18:16:40.629Z,2.00
2023-03-11T18:19:26.175Z,1.90
2023-03-11T18:22:12.629Z,1.60
2023-03-11T18:24:44.767Z,2.13
2023-03-11T18:27:26.748Z,2.47
2023-03-11T18:30:28.727Z,2.93
2023-03-11T18:33:10.131Z,2.70
2023-03-11T18:35:53.883Z,2.70
2023-03-11T18:38:44.357Z,2.13
2023-03-11T18:41:28.668Z,2.57
2023-03-11T18:44:04.544Z,2.77
2023-03-11T18:47:01.585Z,2.00
2023-03-11T18:49:42.790Z,1.87
2023-03-11T18:52:22.908Z,2.57
2023-03-11T18:55:13.560Z,2.20
2023-03-11T18:57:54.055Z,2.30
2023-03-11T19:01:07.820Z,1.73
2023-03-11T19:04:11.386Z,2.33
2023-03-11T19:06:54.787Z,1.80
2023-03-11T19:09:37.694Z,1.80
2023-03-11T19:12:10.183Z,1.93
2023-03-11T19:14:40.732Z,1.97
2023-03-11T19:18:07.690Z,2.13
2023-03-11T19:21:21.093Z,1.77
2023-03-11T19:24:08.808Z,2.00
2023-03-11T19:26:49.910Z,2.10
2023-03-11T19:29:54.605Z,1.87
2023-03-11T19:32:26.765Z,2.33
2023-03-11T19:35:19.676Z,2.50
2023-03-11T19:38:00.109Z,2.50
2023-03-11T19:41:06.384Z,2.33
2023-03-11T19:43:56.959Z,2.47
2023-03-11T19:46:38.581Z,3.27
2023-03-11T19:49:22.326Z,4.03
2023-03-11T19:52:38.456Z,3.73
2023-03-11T19:55:49.255Z,3.43
2023-03-11T19:58:21.132Z,3.40
2023-03-11T20:00:56.447Z,4.23
2023-03-11T20:03:30.647Z,4.37
2023-03-11T20:06:18.875Z,4.13
2023-03-11T20:09:18.805Z,4.33
2023-03-11T20:12:16.216Z,4.33
2023-03-11T20:14:48.236Z,4.37
2023-03-11T20:17:37.715Z,4.47
2023-03-11T20:20:13.247Z,4.00
2023-03-11T20:23:08.291Z,4.07
2023-03-11T20:26:32.294Z,4.23
2023-03-11T20:29:17.280Z,3.80
2023-03-11T20:31:58.216Z,4.23
2023-03-11T20:34:30.529Z,3.97
2023-03-11T20:37:19.108Z,4.20
2023-03-11T20:40:16.892Z,3.83
2023-03-11T20:43:18.566Z,4.40
2023-03-11T20:45:56.086Z,4.60
2023-03-11T20:48:39.554Z,4.37
2023-03-11T20:51:21.010Z,4.80
2023-03-11T20:54:02.436Z,4.63
2023-03-11T20:56:42.805Z,4.47
2023-03-11T20:59:25.034Z,4.40
2023-03-11T21:02:02.983Z,4.80
2023-03-11T21:04:44.364Z,4.10
2023-03-11T21:07:27.989Z,4.70
2023-03-11T21:10:22.578Z,4.03
2023-03-11T21:13:17.511Z,4.67
2023-03-11T21:16:23.418Z,3.73
2023-03-11T21:19:14.325Z,3.40
2023-03-11T21:22:07.031Z,4.10
2023-03-11T21:24:37.807Z,3.63
2023-03-11T21:27:10.137Z,4.00
2023-03-11T21:29:51.578Z,3.83
2023-03-11T21:32:56.824Z,4.43
2023-03-11T21:35:43.905Z,4.60
2023-03-11T21:38:17.917Z,4.63
2023-03-11T21:41:05.964Z,4.23
2023-03-11T21:43:41.869Z,4.50
2023-03-11T21:46:40.846Z,4.57
2023-03-11T21:49:25.553Z,4.77
2023-03-11T21:52:16.969Z,4.60
2023-03-11T21:54:52.363Z,4.50
2023-03-11T21:57:41.783Z,4.60
2023-03-11T22:00:38.417Z,4.00
2023-03-11T22:03:19.996Z,4.40
2023-03-11T22:06:33.982Z,5.03
2023-03-11T22:09:16.058Z,4.60
2023-03-11T22:11:56.745Z,4.70
2023-03-11T22:14:32.346Z,4.40
2023-03-11T22:17:04.181Z,4.77
2023-03-11T22:19:43.449Z,4.17
2023-03-11T22:22:21.871Z,4.43
2023-03-11T22:25:07.465Z,3.73
2023-03-11T22:27:52.691Z,4.10
2023-03-11T22:30:48.758Z,4.10
2023-03-11T22:33:44.418Z,4.33
2023-03-11T22:36:15.471Z,4.20
2023-03-11T22:39:13.972Z,4.30
2023-03-11T22:41:52.521Z,4.30
2023-03-11T22:44:32.381Z,4.00
2023-03-11T22:47:31.869Z,4.07
2023-03-11T22:50:28.731Z,4.10
2023-03-11T22:53:25.781Z,4.00
2023-03-11T22:56:26.666Z,3.50
2023-03-11T22:58:57.994Z,3.90
2023-03-11T23:01:28.447Z,4.00
2023-03-11T23:04:19.244Z,3.60
2023-03-11T23:06:59.212Z,3.93
2023-03-11T23:09:46.672Z,4.17
2023-03-11T23:12:46.611Z,4.47
2023-03-11T23:15:23.512Z,3.90
2023-03-11T23:17:56.702Z,4.33
2023-03-11T23:20:55.192Z,3.57
2023-03-11T23:23:44.260Z,3.40
2023-03-11T23:26:31.983Z,3.90
2023-03-11T23:29:09.262Z,3.97
2023-03-11T23:31:57.043Z,3.50
2023-03-11T23:34:39.612Z,3.97
2023-03-11T23:37:14.039Z,4.20
2023-03-11T23:40:11.035Z,3.83
2023-03-11T23:42:58.763Z,3.60
2023-03-11T23:46:00.923Z,4.00
2023-03-11T23:48:42.033Z,4.10
2023-03-11T23:51:17.334Z,4.20
2023-03-11T23:53:52.784Z,4.27
2023-03-11T23:56:46.574Z,4.00
2023-03-11T23:59:41.429Z,3.87
